createdAt,value
2019-02-06T00:00:53.415Z,3.44
2019-02-06T00:01:32.443Z,3.37
2019-02-06T00:02:14.013Z,3.37
2019-02-06T00:02:47.063Z,3.37
2019-02-06T00:03:21.400Z,3.37
2019-02-06T00:03:54.661Z,3.37
2019-02-06T00:04:27.726Z,3.44
2019-02-06T00:05:00.877Z,3.44
2019-02-06T00:05:34.025Z,3.44
2019-02-06T00:06:07.075Z,3.44
2019-02-06T00:06:40.253Z,3.44
2019-02-06T00:07:13.309Z,3.44
2019-02-06T00:07:46.465Z,3.44
2019-02-06T00:08:19.649Z,3.44
2019-02-06T00:08:53.929Z,3.44
2019-02-06T00:09:27.000Z,3.44
2019-02-06T00:10:00.332Z,3.44
2019-02-06T00:10:34.172Z,3.44
2019-02-06T00:11:07.382Z,3.44
2019-02-06T00:11:40.585Z,3.44
2019-02-06T00:12:13.630Z,3.44
2019-02-06T00:12:47.102Z,3.44
2019-02-06T00:13:20.235Z,3.44
2019-02-06T00:13:53.714Z,3.44
2019-02-06T00:14:26.743Z,3.50
2019-02-06T00:14:59.802Z,3.50
2019-02-06T00:15:33.048Z,3.50
2019-02-06T00:16:06.358Z,3.50
2019-02-06T00:16:39.413Z,3.50
2019-02-06T00:17:12.834Z,3.50
2019-02-06T00:17:46.038Z,3.50
2019-02-06T00:18:20.005Z,3.50
2019-02-06T00:18:53.207Z,3.50
2019-02-06T00:19:26.203Z,3.50
2019-02-06T00:19:59.235Z,3.50
2019-02-06T00:20:32.247Z,3.50
2019-02-06T00:21:05.432Z,3.50
2019-02-06T00:21:38.489Z,3.50
2019-02-06T00:22:11.784Z,3.50
2019-02-06T00:22:44.768Z,3.50
2019-02-06T00:23:17.823Z,3.50
2019-02-06T00:23:50.938Z,3.50
2019-02-06T00:24:24.208Z,3.50
2019-02-06T00:24:57.351Z,3.50
2019-02-06T00:25:30.608Z,3.44
2019-02-06T00:26:04.014Z,3.50
2019-02-06T00:26:37.282Z,3.44
2019-02-06T00:27:10.356Z,3.44
2019-02-06T00:27:43.902Z,3.44
2019-02-06T00:28:16.920Z,3.44
2019-02-06T00:28:50.159Z,3.44
2019-02-06T00:29:23.406Z,3.44
2019-02-06T00:29:56.481Z,3.44
2019-02-06T00:30:29.456Z,3.44
2019-02-06T00:31:02.802Z,3.44
2019-02-06T00:31:35.874Z,3.44
2019-02-06T00:32:09.201Z,3.44
2019-02-06T00:32:42.420Z,3.44
2019-02-06T00:33:15.611Z,3.44
2019-02-06T00:33:48.670Z,3.44
2019-02-06T00:34:21.733Z,3.44
2019-02-06T00:34:54.900Z,3.44
2019-02-06T00:35:28.093Z,3.44
2019-02-06T00:36:01.254Z,3.44
2019-02-06T00:36:34.379Z,3.44
2019-02-06T00:37:07.525Z,3.44
2019-02-06T00:37:40.546Z,3.44
2019-02-06T00:38:13.574Z,3.44
2019-02-06T00:38:46.582Z,3.44
2019-02-06T00:39:19.598Z,3.44
2019-02-06T00:39:52.614Z,3.44
2019-02-06T00:40:25.754Z,3.44
2019-02-06T00:40:58.904Z,3.44
2019-02-06T00:41:32.321Z,3.44
2019-02-06T00:42:05.467Z,3.44
2019-02-06T00:42:39.186Z,3.44
2019-02-06T00:43:12.359Z,3.44
2019-02-06T00:43:45.862Z,3.44
2019-02-06T00:44:18.970Z,3.44
2019-02-06T00:44:52.178Z,3.50
2019-02-06T00:45:25.194Z,3.44
2019-02-06T00:45:58.338Z,3.44
2019-02-06T00:46:31.458Z,3.50
2019-02-06T00:47:04.376Z,3.50
2019-02-06T00:47:37.398Z,3.50
2019-02-06T00:48:10.432Z,3.50
2019-02-06T00:48:43.511Z,3.44
2019-02-06T00:49:17.628Z,3.50
2019-02-06T00:49:50.654Z,3.50
2019-02-06T00:50:23.742Z,3.44
2019-02-06T00:50:56.754Z,3.50
2019-02-06T00:51:29.672Z,3.50
2019-02-06T00:52:02.804Z,3.50
2019-02-06T00:52:35.903Z,3.44
2019-02-06T00:53:08.920Z,3.44
2019-02-06T00:53:41.945Z,3.44
2019-02-06T00:54:15.055Z,3.50
2019-02-06T00:54:48.083Z,3.50
2019-02-06T00:55:21.393Z,3.50
2019-02-06T00:55:54.471Z,3.44
2019-02-06T00:56:28.010Z,3.44
2019-02-06T00:57:01.014Z,3.44
2019-02-06T00:57:34.690Z,3.44
2019-02-06T00:58:07.744Z,3.44
2019-02-06T00:58:40.756Z,3.44
2019-02-06T00:59:14.372Z,3.44
2019-02-06T00:59:47.438Z,3.44
2019-02-06T01:00:21.777Z,3.44
2019-02-06T01:00:54.778Z,3.44
2019-02-06T01:01:27.947Z,3.44
2019-02-06T01:02:00.980Z,3.37
2019-02-06T01:02:34.084Z,3.37
2019-02-06T01:03:07.290Z,3.37
2019-02-06T01:03:40.613Z,3.44
2019-02-06T01:04:13.869Z,3.37
2019-02-06T01:04:47.004Z,3.37
2019-02-06T01:05:20.646Z,3.37
2019-02-06T01:05:53.652Z,3.37
2019-02-06T01:06:26.760Z,3.37
2019-02-06T01:06:59.888Z,3.37
2019-02-06T01:07:32.902Z,3.37
2019-02-06T01:08:05.959Z,3.37
2019-02-06T01:08:38.976Z,3.44
2019-02-06T01:09:11.966Z,3.37
2019-02-06T01:09:45.128Z,3.37
2019-02-06T01:10:18.974Z,3.37
2019-02-06T01:10:51.969Z,3.37
2019-02-06T01:11:26.492Z,3.37
2019-02-06T01:11:59.506Z,3.37
2019-02-06T01:12:32.804Z,3.37
2019-02-06T01:13:05.938Z,3.37
2019-02-06T01:13:39.956Z,3.37
2019-02-06T01:14:12.982Z,3.37
2019-02-06T01:14:46.072Z,3.37
2019-02-06T01:15:19.159Z,3.37
2019-02-06T01:15:52.336Z,3.37
2019-02-06T01:16:25.344Z,3.37
2019-02-06T01:16:58.364Z,3.37
2019-02-06T01:17:31.482Z,3.37
2019-02-06T01:18:04.847Z,3.37
2019-02-06T01:18:37.867Z,3.37
2019-02-06T01:19:10.929Z,3.37
2019-02-06T01:19:43.961Z,3.37
2019-02-06T01:20:17.022Z,3.37
2019-02-06T01:20:50.130Z,3.37
2019-02-06T01:21:23.142Z,3.37
2019-02-06T01:21:56.145Z,3.37
2019-02-06T01:22:29.295Z,3.37
2019-02-06T01:23:02.482Z,3.37
2019-02-06T01:23:35.512Z,3.37
2019-02-06T01:24:08.878Z,3.37
2019-02-06T01:24:41.918Z,3.37
2019-02-06T01:25:16.098Z,3.37
2019-02-06T01:25:50.340Z,3.37
2019-02-06T01:26:24.371Z,3.37
2019-02-06T01:26:57.529Z,3.37
2019-02-06T01:27:30.596Z,3.37
2019-02-06T01:28:03.770Z,3.37
2019-02-06T01:28:36.912Z,3.37
2019-02-06T01:29:10.087Z,3.31
2019-02-06T01:29:44.348Z,3.37
2019-02-06T01:30:21.366Z,3.37
2019-02-06T01:31:06.344Z,3.37
2019-02-06T01:31:39.392Z,3.37
2019-02-06T01:32:12.690Z,3.31
2019-02-06T01:32:45.885Z,3.31
2019-02-06T01:33:19.398Z,3.31
2019-02-06T01:33:52.484Z,3.31
2019-02-06T01:34:27.191Z,3.31
2019-02-06T01:35:00.357Z,3.31
2019-02-06T01:35:34.449Z,3.31
2019-02-06T01:36:07.600Z,3.31
2019-02-06T01:36:40.607Z,3.31
2019-02-06T01:37:13.661Z,3.31
2019-02-06T01:37:47.946Z,3.31
2019-02-06T01:38:21.025Z,3.31
2019-02-06T01:38:54.032Z,3.31
2019-02-06T01:39:27.109Z,3.31
2019-02-06T01:40:00.329Z,3.31
2019-02-06T01:40:33.469Z,3.31
2019-02-06T01:41:06.575Z,3.31
2019-02-06T01:41:39.759Z,3.31
2019-02-06T01:42:14.327Z,3.31
2019-02-06T01:42:47.596Z,3.31
2019-02-06T01:43:20.587Z,3.31
2019-02-06T01:43:53.640Z,3.31
2019-02-06T01:44:26.734Z,3.31
2019-02-06T01:44:59.920Z,3.37
2019-02-06T01:45:33.009Z,3.37
2019-02-06T01:46:06.173Z,3.37
2019-02-06T01:46:39.341Z,3.37
2019-02-06T01:47:12.775Z,3.37
2019-02-06T01:47:47.331Z,3.37
2019-02-06T01:48:20.927Z,3.37
2019-02-06T01:48:55.462Z,3.37
2019-02-06T01:49:28.936Z,3.37
2019-02-06T01:50:02.166Z,3.37
2019-02-06T01:50:35.815Z,3.37
2019-02-06T01:51:10.495Z,3.37
2019-02-06T01:51:43.615Z,3.37
2019-02-06T01:52:18.270Z,3.37
2019-02-06T01:52:51.356Z,3.37
2019-02-06T01:53:24.351Z,3.37
2019-02-06T01:53:57.403Z,3.37
2019-02-06T01:54:30.322Z,3.37
2019-02-06T01:55:04.545Z,3.37
2019-02-06T01:55:37.550Z,3.37
2019-02-06T01:56:10.617Z,3.37
2019-02-06T01:56:43.625Z,3.37
2019-02-06T01:57:16.713Z,3.37
2019-02-06T01:57:49.710Z,3.37
2019-02-06T01:58:22.891Z,3.37
2019-02-06T01:58:55.862Z,3.37
2019-02-06T01:59:28.913Z,3.37
2019-02-06T02:00:02.634Z,3.37
2019-02-06T02:00:36.927Z,3.37
2019-02-06T02:01:10.021Z,3.44
2019-02-06T02:01:43.106Z,3.44
2019-02-06T02:02:16.034Z,3.44
2019-02-06T02:02:49.187Z,3.44
2019-02-06T02:03:22.589Z,3.44
2019-02-06T02:03:55.678Z,3.44
2019-02-06T02:04:29.113Z,3.44
2019-02-06T02:05:02.172Z,3.44
2019-02-06T02:05:37.858Z,3.44
2019-02-06T02:06:10.416Z,3.44
2019-02-06T02:06:43.936Z,3.44
2019-02-06T02:07:17.051Z,3.44
2019-02-06T02:07:50.480Z,3.44
2019-02-06T02:08:23.719Z,3.44
2019-02-06T02:08:59.931Z,3.44
2019-02-06T02:09:33.137Z,3.44
2019-02-06T02:10:06.889Z,3.44
2019-02-06T02:10:39.935Z,3.44
2019-02-06T02:11:13.031Z,3.44
2019-02-06T02:11:46.205Z,3.44
2019-02-06T02:12:20.579Z,3.44
2019-02-06T02:12:53.770Z,3.44
2019-02-06T02:13:26.761Z,3.44
2019-02-06T02:13:59.811Z,3.44
2019-02-06T02:14:32.909Z,3.44
2019-02-06T02:15:08.281Z,3.44
2019-02-06T02:15:41.449Z,3.44
2019-02-06T02:16:14.523Z,3.44
2019-02-06T02:16:47.531Z,3.44
2019-02-06T02:17:20.619Z,3.44
2019-02-06T02:17:53.571Z,3.37
2019-02-06T02:18:26.701Z,3.37
2019-02-06T02:18:59.727Z,3.37
2019-02-06T02:19:32.858Z,3.37
2019-02-06T02:20:11.824Z,3.37
2019-02-06T02:20:44.917Z,3.31
2019-02-06T02:21:18.081Z,3.31
2019-02-06T02:21:51.108Z,3.31
2019-02-06T02:22:24.376Z,3.31
2019-02-06T02:22:57.728Z,3.31
2019-02-06T02:23:30.955Z,3.31
2019-02-06T02:24:04.219Z,3.25
2019-02-06T02:24:37.402Z,3.25
2019-02-06T02:25:12.191Z,3.25
2019-02-06T02:25:45.319Z,3.25
2019-02-06T02:26:19.135Z,3.19
2019-02-06T02:26:52.185Z,3.19
2019-02-06T02:27:25.605Z,3.19
2019-02-06T02:27:58.642Z,3.19
2019-02-06T02:28:31.801Z,3.19
2019-02-06T02:29:04.821Z,3.19
2019-02-06T02:29:37.945Z,3.19
2019-02-06T02:30:16.004Z,3.19
2019-02-06T02:30:52.307Z,3.19
2019-02-06T02:31:25.405Z,3.19
2019-02-06T02:31:58.451Z,3.19
2019-02-06T02:32:31.607Z,3.19
2019-02-06T02:33:04.729Z,3.19
2019-02-06T02:33:37.830Z,3.25
2019-02-06T02:34:11.097Z,3.25
2019-02-06T02:34:44.003Z,3.25
2019-02-06T02:35:17.185Z,3.25
2019-02-06T02:35:50.257Z,3.25
2019-02-06T02:36:23.323Z,3.31
2019-02-06T02:36:56.417Z,3.31
2019-02-06T02:37:29.385Z,3.31
2019-02-06T02:38:02.518Z,3.31
2019-02-06T02:38:35.599Z,3.31
2019-02-06T02:39:08.795Z,3.31
2019-02-06T02:39:41.945Z,3.31
2019-02-06T02:40:15.176Z,3.31
2019-02-06T02:40:48.352Z,3.31
2019-02-06T02:41:21.359Z,3.37
2019-02-06T02:41:54.484Z,3.37
2019-02-06T02:42:27.384Z,3.37
2019-02-06T02:43:00.440Z,3.37
2019-02-06T02:43:33.933Z,3.37
2019-02-06T02:44:06.883Z,3.37
2019-02-06T02:44:41.176Z,3.37
2019-02-06T02:45:15.645Z,3.37
2019-02-06T02:45:49.237Z,3.37
2019-02-06T02:46:22.278Z,3.37
2019-02-06T02:46:55.305Z,3.37
2019-02-06T02:47:28.378Z,3.37
2019-02-06T02:48:01.372Z,3.37
2019-02-06T02:48:34.311Z,3.37
2019-02-06T02:49:07.333Z,3.37
2019-02-06T02:49:40.317Z,3.37
2019-02-06T02:50:13.469Z,3.37
2019-02-06T02:50:47.259Z,3.37
2019-02-06T02:51:20.307Z,3.37
2019-02-06T02:51:53.562Z,3.37
2019-02-06T02:52:26.593Z,3.44
2019-02-06T02:52:59.681Z,3.37
2019-02-06T02:53:32.714Z,3.44
2019-02-06T02:54:05.836Z,3.44
2019-02-06T02:54:38.846Z,3.44
2019-02-06T02:55:12.279Z,3.44
2019-02-06T02:55:45.421Z,3.44
2019-02-06T02:56:18.578Z,3.44
2019-02-06T02:56:51.479Z,3.44
2019-02-06T02:57:24.705Z,3.44
2019-02-06T02:57:57.707Z,3.44
2019-02-06T02:58:31.154Z,3.44
2019-02-06T02:59:04.151Z,3.44
2019-02-06T02:59:37.620Z,3.44
2019-02-06T03:00:15.400Z,3.44
2019-02-06T03:01:08.619Z,3.50
2019-02-06T03:01:59.531Z,3.50
2019-02-06T03:02:52.255Z,3.50
2019-02-06T03:03:36.961Z,3.50
2019-02-06T03:04:15.689Z,3.50
2019-02-06T03:04:52.945Z,3.50
2019-02-06T03:05:30.553Z,3.50
2019-02-06T03:06:04.957Z,3.50
2019-02-06T03:06:38.907Z,3.56
2019-02-06T03:07:11.955Z,3.56
2019-02-06T03:07:45.085Z,3.56
2019-02-06T03:08:18.057Z,3.56
2019-02-06T03:08:51.511Z,3.56
2019-02-06T03:09:24.688Z,3.56
2019-02-06T03:09:58.143Z,3.56
2019-02-06T03:10:31.137Z,3.56
2019-02-06T03:11:04.685Z,3.56
2019-02-06T03:11:37.721Z,3.62
2019-02-06T03:12:10.734Z,3.62
2019-02-06T03:12:44.981Z,3.62
2019-02-06T03:13:18.355Z,3.62
2019-02-06T03:13:51.405Z,3.62
2019-02-06T03:14:24.396Z,3.62
2019-02-06T03:14:57.465Z,3.62
2019-02-06T03:15:31.566Z,3.62
2019-02-06T03:16:06.267Z,3.62
2019-02-06T03:16:40.488Z,3.62
2019-02-06T03:17:13.624Z,3.69
2019-02-06T03:17:46.654Z,3.62
2019-02-06T03:18:19.741Z,3.69
2019-02-06T03:18:52.730Z,3.69
2019-02-06T03:19:25.824Z,3.69
2019-02-06T03:19:58.904Z,3.69
2019-02-06T03:20:31.994Z,3.69
2019-02-06T03:21:05.148Z,3.69
2019-02-06T03:21:38.264Z,3.69
2019-02-06T03:22:11.300Z,3.69
2019-02-06T03:22:44.355Z,3.69
2019-02-06T03:23:17.488Z,3.69
2019-02-06T03:23:51.042Z,3.69
2019-02-06T03:24:24.084Z,3.69
2019-02-06T03:24:57.563Z,3.69
2019-02-06T03:25:30.568Z,3.69
2019-02-06T03:26:04.106Z,3.69
2019-02-06T03:26:37.184Z,3.69
2019-02-06T03:27:10.230Z,3.69
2019-02-06T03:27:43.269Z,3.69
2019-02-06T03:28:16.146Z,3.69
2019-02-06T03:28:49.166Z,3.69
2019-02-06T03:29:22.144Z,3.69
2019-02-06T03:29:56.256Z,3.69
2019-02-06T03:30:29.286Z,3.69
2019-02-06T03:31:02.535Z,3.69
2019-02-06T03:31:35.574Z,3.69
2019-02-06T03:32:08.593Z,3.69
2019-02-06T03:32:44.401Z,3.69
2019-02-06T03:33:17.335Z,3.69
2019-02-06T03:33:50.413Z,3.69
2019-02-06T03:34:23.536Z,3.69
2019-02-06T03:34:57.117Z,3.69
2019-02-06T03:35:30.239Z,3.69
2019-02-06T03:36:03.686Z,3.69
2019-02-06T03:36:40.320Z,3.69
2019-02-06T03:37:11.656Z,3.69
2019-02-06T03:37:44.671Z,3.69
2019-02-06T03:38:20.609Z,3.69
2019-02-06T03:38:53.630Z,3.69
2019-02-06T03:39:26.716Z,3.69
2019-02-06T03:39:59.724Z,3.69
2019-02-06T03:40:32.894Z,3.69
2019-02-06T03:41:06.133Z,3.69
2019-02-06T03:41:39.249Z,3.69
2019-02-06T03:42:12.646Z,3.69
2019-02-06T03:42:45.930Z,3.69
2019-02-06T03:43:19.340Z,3.75
2019-02-06T03:43:52.494Z,3.69
2019-02-06T03:44:25.516Z,3.69
2019-02-06T03:44:58.606Z,3.69
2019-02-06T03:45:31.963Z,3.69
2019-02-06T03:46:05.938Z,3.69
2019-02-06T03:46:39.024Z,3.69
2019-02-06T03:47:12.064Z,3.75
2019-02-06T03:47:45.075Z,3.75
2019-02-06T03:48:18.158Z,3.75
2019-02-06T03:48:51.152Z,3.75
2019-02-06T03:49:24.282Z,3.75
2019-02-06T03:49:57.276Z,3.75
2019-02-06T03:50:30.570Z,3.75
2019-02-06T03:51:03.802Z,3.75
2019-02-06T03:51:36.961Z,3.75
2019-02-06T03:52:09.988Z,3.75
2019-02-06T03:52:44.091Z,3.75
2019-02-06T03:53:17.110Z,3.75
2019-02-06T03:53:50.222Z,3.75
2019-02-06T03:54:23.212Z,3.75
2019-02-06T03:54:56.593Z,3.75
2019-02-06T03:55:29.606Z,3.75
2019-02-06T03:56:03.134Z,3.75
2019-02-06T03:56:36.141Z,3.75
2019-02-06T03:57:09.706Z,3.75
2019-02-06T03:57:43.928Z,3.75
2019-02-06T03:58:17.130Z,3.75
2019-02-06T03:58:50.133Z,3.75
2019-02-06T03:59:23.320Z,3.75
2019-02-06T03:59:56.404Z,3.75
2019-02-06T04:00:29.759Z,3.75
2019-02-06T04:01:02.884Z,3.81
2019-02-06T04:01:35.953Z,3.81
2019-02-06T04:02:08.953Z,3.81
2019-02-06T04:02:42.036Z,3.81
2019-02-06T04:03:15.000Z,3.81
2019-02-06T04:03:48.090Z,3.81
2019-02-06T04:04:21.091Z,3.81
2019-02-06T04:04:54.880Z,3.81
2019-02-06T04:05:27.786Z,3.81
2019-02-06T04:06:01.125Z,3.81
2019-02-06T04:06:34.037Z,3.81
2019-02-06T04:07:07.258Z,3.81
2019-02-06T04:07:40.275Z,3.81
2019-02-06T04:08:13.327Z,3.81
2019-02-06T04:08:47.422Z,3.81
2019-02-06T04:09:20.391Z,3.81
2019-02-06T04:09:53.802Z,3.81
2019-02-06T04:10:27.058Z,3.81
2019-02-06T04:11:00.597Z,3.81
2019-02-06T04:11:34.236Z,3.81
2019-02-06T04:12:07.672Z,3.87
2019-02-06T04:12:40.752Z,3.81
2019-02-06T04:13:14.799Z,3.87
2019-02-06T04:13:47.969Z,3.87
2019-02-06T04:14:20.967Z,3.87
2019-02-06T04:14:54.900Z,3.87
2019-02-06T04:15:28.010Z,3.87
2019-02-06T04:16:01.165Z,3.87
2019-02-06T04:16:34.271Z,3.87
2019-02-06T04:17:07.547Z,3.87
2019-02-06T04:17:40.636Z,3.87
2019-02-06T04:18:13.826Z,3.87
2019-02-06T04:18:46.926Z,3.87
2019-02-06T04:19:20.148Z,3.87
2019-02-06T04:19:53.258Z,3.87
2019-02-06T04:20:26.466Z,3.87
2019-02-06T04:20:59.562Z,3.87
2019-02-06T04:21:32.865Z,3.87
2019-02-06T04:22:05.957Z,3.87
2019-02-06T04:22:39.102Z,3.87
2019-02-06T04:23:15.399Z,3.87
2019-02-06T04:23:48.500Z,3.87
2019-02-06T04:24:21.419Z,3.87
2019-02-06T04:24:54.599Z,3.87
2019-02-06T04:25:27.716Z,3.87
2019-02-06T04:26:00.863Z,3.87
2019-02-06T04:26:33.925Z,3.87
2019-02-06T04:27:07.408Z,3.94
2019-02-06T04:27:40.611Z,3.94
2019-02-06T04:28:14.180Z,3.94
2019-02-06T04:28:47.926Z,3.94
2019-02-06T04:29:21.497Z,3.94
2019-02-06T04:29:54.567Z,3.94
2019-02-06T04:30:27.608Z,3.94
2019-02-06T04:31:00.681Z,3.94
2019-02-06T04:31:34.465Z,3.94
2019-02-06T04:32:07.661Z,3.94
2019-02-06T04:32:40.747Z,3.94
2019-02-06T04:33:13.924Z,3.94
2019-02-06T04:33:46.889Z,3.94
2019-02-06T04:34:19.940Z,4.00
2019-02-06T04:34:54.488Z,4.00
2019-02-06T04:35:27.620Z,4.00
2019-02-06T04:36:00.708Z,4.00
2019-02-06T04:36:33.785Z,4.00
2019-02-06T04:37:07.194Z,4.00
2019-02-06T04:37:40.287Z,4.00
2019-02-06T04:38:13.165Z,4.00
2019-02-06T04:38:46.227Z,4.00
2019-02-06T04:39:19.488Z,4.00
2019-02-06T04:39:52.653Z,4.00
2019-02-06T04:40:25.703Z,4.00
2019-02-06T04:40:58.753Z,4.00
2019-02-06T04:41:31.807Z,4.00
2019-02-06T04:42:05.174Z,4.00
2019-02-06T04:42:38.298Z,4.00
2019-02-06T04:43:11.847Z,4.00
2019-02-06T04:43:44.872Z,4.00
2019-02-06T04:44:18.432Z,4.00
2019-02-06T04:44:51.401Z,4.00
2019-02-06T04:45:25.993Z,4.00
2019-02-06T04:46:00.733Z,4.00
2019-02-06T04:46:33.675Z,4.00
2019-02-06T04:47:06.948Z,4.00
2019-02-06T04:47:39.915Z,4.00
2019-02-06T04:48:12.971Z,4.00
2019-02-06T04:48:46.018Z,4.00
2019-02-06T04:49:19.168Z,4.00
2019-02-06T04:49:52.365Z,4.00
2019-02-06T04:50:25.601Z,4.00
2019-02-06T04:50:58.672Z,4.00
2019-02-06T04:51:31.669Z,4.00
2019-02-06T04:52:05.857Z,4.00
2019-02-06T04:52:39.062Z,4.00
2019-02-06T04:53:12.051Z,4.00
2019-02-06T04:53:45.097Z,4.00
2019-02-06T04:54:18.044Z,4.00
2019-02-06T04:54:51.096Z,4.00
2019-02-06T04:55:24.199Z,4.00
2019-02-06T04:55:57.221Z,4.00
2019-02-06T04:56:30.255Z,4.00
2019-02-06T04:57:03.545Z,4.00
2019-02-06T04:57:36.612Z,4.00
2019-02-06T04:58:10.059Z,4.00
2019-02-06T04:58:43.180Z,4.00
2019-02-06T04:59:16.612Z,4.00
2019-02-06T04:59:49.548Z,4.00
2019-02-06T05:00:24.263Z,4.00
2019-02-06T05:00:57.241Z,4.00
2019-02-06T05:01:30.344Z,4.00
2019-02-06T05:02:04.579Z,4.00
2019-02-06T05:02:37.733Z,4.00
2019-02-06T05:03:10.827Z,4.00
2019-02-06T05:03:43.946Z,4.00
2019-02-06T05:04:17.009Z,4.00
2019-02-06T05:04:50.185Z,4.00
2019-02-06T05:05:23.529Z,4.00
2019-02-06T05:05:56.884Z,3.94
2019-02-06T05:06:29.823Z,3.94
2019-02-06T05:07:02.870Z,4.00
2019-02-06T05:07:35.947Z,4.00
2019-02-06T05:08:09.033Z,4.00
2019-02-06T05:08:42.128Z,4.00
2019-02-06T05:09:15.173Z,3.94
2019-02-06T05:09:48.120Z,3.94
2019-02-06T05:10:21.130Z,3.94
2019-02-06T05:10:54.257Z,3.94
2019-02-06T05:11:28.945Z,3.94
2019-02-06T05:12:02.035Z,3.94
2019-02-06T05:12:35.231Z,3.94
2019-02-06T05:13:08.571Z,3.94
2019-02-06T05:13:41.726Z,3.94
2019-02-06T05:14:14.888Z,3.94
2019-02-06T05:14:48.013Z,3.94
2019-02-06T05:15:21.161Z,3.94
2019-02-06T05:15:54.289Z,3.94
2019-02-06T05:16:27.435Z,3.94
2019-02-06T05:17:00.462Z,3.94
2019-02-06T05:17:33.503Z,3.94
2019-02-06T05:18:06.658Z,3.94
2019-02-06T05:18:39.569Z,3.94
2019-02-06T05:19:12.517Z,3.94
2019-02-06T05:19:45.550Z,3.94
2019-02-06T05:20:32.809Z,3.94
2019-02-06T05:21:05.835Z,3.87
2019-02-06T05:21:38.897Z,3.87
2019-02-06T05:22:11.933Z,3.87
2019-02-06T05:22:44.936Z,3.87
2019-02-06T05:23:17.851Z,3.87
2019-02-06T05:23:51.065Z,3.87
2019-02-06T05:24:24.201Z,3.87
2019-02-06T05:24:57.105Z,3.87
2019-02-06T05:25:30.283Z,3.87
2019-02-06T05:26:03.544Z,3.87
2019-02-06T05:26:36.659Z,3.87
2019-02-06T05:27:09.684Z,3.87
2019-02-06T05:27:42.883Z,3.81
2019-02-06T05:28:18.190Z,3.81
2019-02-06T05:28:51.482Z,3.81
2019-02-06T05:29:25.501Z,3.81
2019-02-06T05:29:58.514Z,3.81
2019-02-06T05:30:31.647Z,3.81
2019-02-06T05:31:04.699Z,3.75
2019-02-06T05:31:37.970Z,3.75
2019-02-06T05:32:11.144Z,3.75
2019-02-06T05:32:44.557Z,3.75
2019-02-06T05:33:17.612Z,3.75
2019-02-06T05:33:51.166Z,3.75
2019-02-06T05:34:24.213Z,3.75
2019-02-06T05:34:57.311Z,3.75
2019-02-06T05:35:30.501Z,3.75
2019-02-06T05:36:04.012Z,3.69
2019-02-06T05:36:37.086Z,3.69
2019-02-06T05:37:10.000Z,3.69
2019-02-06T05:37:43.134Z,3.69
2019-02-06T05:38:16.172Z,3.69
2019-02-06T05:38:49.679Z,3.69
2019-02-06T05:39:22.687Z,3.69
2019-02-06T05:39:55.814Z,3.69
2019-02-06T05:40:28.930Z,3.62
2019-02-06T05:41:01.985Z,3.62
2019-02-06T05:41:34.891Z,3.62
2019-02-06T05:42:08.023Z,3.62
2019-02-06T05:42:42.442Z,3.62
2019-02-06T05:43:15.398Z,3.62
2019-02-06T05:43:49.163Z,3.62
2019-02-06T05:44:22.134Z,3.62
2019-02-06T05:44:56.839Z,3.62
2019-02-06T05:45:30.085Z,3.62
2019-02-06T05:46:03.189Z,3.62
2019-02-06T05:46:36.739Z,3.62
2019-02-06T05:47:09.878Z,3.62
2019-02-06T05:47:43.308Z,3.62
2019-02-06T05:48:16.345Z,3.62
2019-02-06T05:48:49.617Z,3.62
2019-02-06T05:49:22.721Z,3.62
2019-02-06T05:49:55.849Z,3.56
2019-02-06T05:50:28.857Z,3.62
2019-02-06T05:51:01.810Z,3.56
2019-02-06T05:51:34.812Z,3.56
2019-02-06T05:52:07.956Z,3.56
2019-02-06T05:52:42.479Z,3.56
2019-02-06T05:53:15.420Z,3.56
2019-02-06T05:53:48.410Z,3.56
2019-02-06T05:54:21.494Z,3.56
2019-02-06T05:54:54.490Z,3.56
2019-02-06T05:55:27.428Z,3.56
2019-02-06T05:56:00.344Z,3.56
2019-02-06T05:56:33.387Z,3.56
2019-02-06T05:57:06.343Z,3.56
2019-02-06T05:57:39.522Z,3.56
2019-02-06T05:58:12.577Z,3.56
2019-02-06T05:59:03.765Z,3.56
2019-02-06T05:59:37.898Z,3.56
2019-02-06T06:00:43.922Z,3.56
2019-02-06T06:01:18.852Z,3.56
2019-02-06T06:01:53.014Z,3.56
2019-02-06T06:02:26.145Z,3.56
2019-02-06T06:02:59.331Z,3.56
2019-02-06T06:03:32.470Z,3.56
2019-02-06T06:04:05.501Z,3.56
2019-02-06T06:04:38.566Z,3.50
2019-02-06T06:05:11.687Z,3.56
2019-02-06T06:05:44.876Z,3.50
2019-02-06T06:06:17.885Z,3.50
2019-02-06T06:06:51.050Z,3.56
2019-02-06T06:07:24.374Z,3.56
2019-02-06T06:07:57.541Z,3.56
2019-02-06T06:08:31.070Z,3.50
2019-02-06T06:09:07.324Z,3.56
2019-02-06T06:09:40.564Z,3.50
2019-02-06T06:10:15.016Z,3.56
2019-02-06T06:10:48.419Z,3.50
2019-02-06T06:11:21.386Z,3.50
2019-02-06T06:11:54.384Z,3.50
2019-02-06T06:12:27.334Z,3.50
2019-02-06T06:13:00.328Z,3.50
2019-02-06T06:13:33.509Z,3.50
2019-02-06T06:14:06.588Z,3.50
2019-02-06T06:14:39.524Z,3.50
2019-02-06T06:15:14.544Z,3.50
2019-02-06T06:15:47.587Z,3.50
2019-02-06T06:16:20.606Z,3.50
2019-02-06T06:16:53.790Z,3.50
2019-02-06T06:17:26.701Z,3.50
2019-02-06T06:17:59.902Z,3.50
2019-02-06T06:18:32.914Z,3.50
2019-02-06T06:19:06.083Z,3.50
2019-02-06T06:19:39.188Z,3.50
2019-02-06T06:20:14.183Z,3.50
2019-02-06T06:20:47.218Z,3.50
2019-02-06T06:21:20.240Z,3.50
2019-02-06T06:21:53.259Z,3.50
2019-02-06T06:22:27.644Z,3.50
2019-02-06T06:23:00.694Z,3.50
2019-02-06T06:23:34.069Z,3.50
2019-02-06T06:24:09.149Z,3.50
2019-02-06T06:24:42.253Z,3.50
2019-02-06T06:25:15.843Z,3.50
2019-02-06T06:25:49.282Z,3.50
2019-02-06T06:26:22.292Z,3.50
2019-02-06T06:26:55.223Z,3.50
2019-02-06T06:27:28.038Z,3.50
2019-02-06T06:28:01.942Z,3.50
2019-02-06T06:28:35.064Z,3.50
2019-02-06T06:29:08.122Z,3.50
2019-02-06T06:29:41.174Z,3.50
2019-02-06T06:30:16.109Z,3.50
2019-02-06T06:30:49.274Z,3.50
2019-02-06T06:31:22.295Z,3.50
2019-02-06T06:31:55.377Z,3.50
2019-02-06T06:32:31.774Z,3.50
2019-02-06T06:33:03.608Z,3.50
2019-02-06T06:33:36.794Z,3.50
2019-02-06T06:34:09.819Z,3.50
2019-02-06T06:34:43.542Z,3.56
2019-02-06T06:35:16.816Z,3.56
2019-02-06T06:35:49.889Z,3.56
2019-02-06T06:36:22.956Z,3.56
2019-02-06T06:36:56.903Z,3.56
2019-02-06T06:37:31.842Z,3.56
2019-02-06T06:38:05.139Z,3.56
2019-02-06T06:38:38.267Z,3.56
2019-02-06T06:39:13.041Z,3.56
2019-02-06T06:39:46.177Z,3.56
2019-02-06T06:40:20.913Z,3.56
2019-02-06T06:40:54.121Z,3.56
2019-02-06T06:41:27.317Z,3.56
2019-02-06T06:42:00.781Z,3.56
2019-02-06T06:42:33.875Z,3.56
2019-02-06T06:43:07.220Z,3.56
2019-02-06T06:43:40.137Z,3.62
2019-02-06T06:44:13.188Z,3.56
2019-02-06T06:44:48.033Z,3.62
2019-02-06T06:45:22.108Z,3.62
2019-02-06T06:45:55.186Z,3.62
2019-02-06T06:46:28.146Z,3.62
2019-02-06T06:47:01.513Z,3.62
2019-02-06T06:47:34.732Z,3.62
2019-02-06T06:48:07.971Z,3.62
2019-02-06T06:48:41.058Z,3.62
2019-02-06T06:49:15.290Z,3.62
2019-02-06T06:49:49.104Z,3.62
2019-02-06T06:50:23.101Z,3.62
2019-02-06T06:50:56.240Z,3.62
2019-02-06T06:51:29.214Z,3.62
2019-02-06T06:52:04.002Z,3.62
2019-02-06T06:52:37.321Z,3.62
2019-02-06T06:53:10.344Z,3.62
2019-02-06T06:53:43.358Z,3.62
2019-02-06T06:54:16.535Z,3.62
2019-02-06T06:54:49.755Z,3.62
2019-02-06T06:55:22.956Z,3.62
2019-02-06T06:55:56.007Z,3.62
2019-02-06T06:56:29.041Z,3.69
2019-02-06T06:57:02.260Z,3.69
2019-02-06T06:57:35.429Z,3.62
2019-02-06T06:58:08.812Z,3.62
2019-02-06T06:58:41.922Z,3.62
2019-02-06T06:59:15.523Z,3.69
2019-02-06T06:59:48.589Z,3.69
2019-02-06T07:00:25.320Z,3.69
2019-02-06T07:00:58.466Z,3.69
2019-02-06T07:01:31.712Z,3.69
2019-02-06T07:02:04.762Z,3.69
2019-02-06T07:02:39.449Z,3.69
2019-02-06T07:03:12.423Z,3.69
2019-02-06T07:03:46.954Z,3.69
2019-02-06T07:04:20.080Z,3.69
2019-02-06T07:04:53.120Z,3.69
2019-02-06T07:05:27.854Z,3.69
2019-02-06T07:06:00.968Z,3.69
2019-02-06T07:06:34.146Z,3.69
2019-02-06T07:07:07.338Z,3.69
2019-02-06T07:07:40.590Z,3.69
2019-02-06T07:08:13.819Z,3.69
2019-02-06T07:08:46.887Z,3.69
2019-02-06T07:09:19.833Z,3.69
2019-02-06T07:09:52.785Z,3.69
2019-02-06T07:10:25.913Z,3.69
2019-02-06T07:10:59.078Z,3.69
2019-02-06T07:11:32.045Z,3.69
2019-02-06T07:12:05.206Z,3.69
2019-02-06T07:12:38.261Z,3.69
2019-02-06T07:13:11.284Z,3.69
2019-02-06T07:13:44.391Z,3.69
2019-02-06T07:14:17.553Z,3.75
2019-02-06T07:14:50.500Z,3.75
2019-02-06T07:15:27.519Z,3.75
2019-02-06T07:16:00.685Z,3.75
2019-02-06T07:16:33.841Z,3.75
2019-02-06T07:17:06.964Z,3.75
2019-02-06T07:17:40.848Z,3.75
2019-02-06T07:18:13.849Z,3.75
2019-02-06T07:18:47.403Z,3.75
2019-02-06T07:19:20.454Z,3.75
2019-02-06T07:19:55.497Z,3.75
2019-02-06T07:20:28.608Z,3.75
2019-02-06T07:21:01.857Z,3.75
2019-02-06T07:21:35.139Z,3.75
2019-02-06T07:22:08.292Z,3.75
2019-02-06T07:22:41.447Z,3.75
2019-02-06T07:23:14.508Z,3.75
2019-02-06T07:23:47.443Z,3.75
2019-02-06T07:24:20.598Z,3.75
2019-02-06T07:24:53.545Z,3.75
2019-02-06T07:25:26.533Z,3.81
2019-02-06T07:25:59.677Z,3.81
2019-02-06T07:26:34.471Z,3.81
2019-02-06T07:27:07.675Z,3.81